Stuttgart, AR

7:55 AM CDT on May 27, 2017 (GMT -0500)
Stuttgart Municipal | | Change Station
Active Advisory: Flood Warning

Elev 223 ft 34.60 °N, 91.57 °W | Updated 20 minutes ago

Overcast
Overcast
75 °F
Feels Like 75 °F
N
12
Wind Variable Wind from SSW

Today
High -- | Low -- °F
--% Chance of Precip.
Yesterday
High -- | Low -- °F
Precip. -- in
Pressure 29.92 in
Visibility 8.0 miles
Clouds Overcast 3000 ft
Dew Point 63 °F
Humidity 65%
Rainfall 0.00 in
Snow Depth Not available.
5:56 AM 8:10 PM
Waxing Crescent, 4% visible
METAR KSGT 271235Z AUTO 21010KT 8SM OVC030 24/17 A2992 RMK AO1
Pressure 29.92 in
Visibility 8.0 miles
Clouds Overcast 3000 ft
Dew Point 63 °F
Humidity 65%
Rainfall 0.00 in
Snow Depth Not available.
5:56 AM 8:10 PM
Waxing Crescent, 4% visible
METAR KSGT 271235Z AUTO 21010KT 8SM OVC030 24/17 A2992 RMK AO1

Get Your Daily Forecast Email!

Thanks for signing up!

Be on the lookout for a verification email in your inbox.

You'll start receiving severe weather alerts in your inbox..

×

10-Day Weather Forecast

Almanac

Astronomy

May. 27, 2017 Rise Set
Actual Time
Civil Twilight
Nautical Twilight
Astronomical Twilight
Moon
Length of Visible Light
Length of Day
Tomorrow will be .
, % of the Moon is Illuminated

Today's Extremes

State Highs State Lows

Community

WunderPhotos

Category 6

Welcome to Category 6. This is the collective home for Weather Underground's featured writeups by Dr. Jeff Masters (right), Bob Henson (left), Chris Burt, and other regular contributors.

Nearby

Air Quality

  Air Quality AQ Index Pollutant
Not available.

Snow Depth

Station Depth Elevation

Earthquake Activity

City Distance Mag. Time & Date
Minimum magnitude displayed is 2.5.

Coastal Water Temperatures

Place Temperature

Stations

Nearby Weather Stations

Station Location Temp. Windchill Dew Point Humidity Wind Precip. Elev Updated Type
                   

Watches & Warnings

Flood Warning
Issued: 8:44 PM CDT May. 26, 2017 – National Weather Service

The Flood Warning continues for
the White River at Clarendon.
* Until further notice... or until the warning is cancelled.
* At 8:00 PM Friday the stage was 29.5 feet.
* Minor flooding is occurring and minor flooding is forecast.
* Flood stage is 26.0 feet.
* Forecast... the river will continue to fall to a stage of 29.2 feet
by Sunday morning.
* Impacts at 30.0 feet... Clarendon storm sewer should be closed to
keep river from backing up outflow pipe. Extensive flooding in the
Delta. Most cropland and Timber in bottoms are flooded. Much of the
National wildlife Refuge land downstream of Clarendon will be
flooded.


             Fld observed forecast 6 am
location stg stg day time Sat sun Mon Tue Wed

Lower White River
Clarendon 26 29.5 Fri 08 PM 29.4 29.2 29.1 28.9 28.7




Lat... Lon 3435 9119 3449 9132 3466 9139 3472 9129
3455 9120 3442 9108